Time;durP1;ratioP1;P1;durP2;ratioP2;P2;SDS_P1;SDS_P2;PMS_P1;PMS_P2;Temp;Humidity;BMP_temperature;BMP_pressure;BME280_temperature;BME280_humidity;BME280_pressure;Samples;Min_cycle;Max_cycle;Signal;HPM_P1;HPM_P2
2021/11/06 00:01:15;;;;;;;28.02;16.35;;;;;;;6.00;95.52;101651.81;4999905;28;20042;-79
2021/11/06 00:03:41;;;;;;;28.23;14.70;;;;;;;5.97;95.50;101654.31;4999716;28;20485;-79
2021/11/06 00:06:06;;;;;;;29.25;16.33;;;;;;;5.95;95.83;101655.13;5000379;28;20049;-79
2021/11/06 00:08:32;;;;;;;31.88;16.52;;;;;;;5.93;95.45;101655.06;4983337;28;20033;-79
2021/11/06 00:10:57;;;;;;;28.90;14.85;;;;;;;5.92;95.84;101650.66;4999737;28;20039;-79
2021/11/06 00:13:22;;;;;;;32.47;16.88;;;;;;;5.95;95.69;101661.28;4999250;28;20501;-79
2021/11/06 00:15:48;;;;;;;33.08;17.27;;;;;;;6.02;96.30;101665.84;4995649;28;20546;-79
2021/11/06 00:18:13;;;;;;;31.05;16.13;;;;;;;6.17;96.06;101660.19;4998627;28;20508;-79
2021/11/06 00:20:39;;;;;;;26.90;15.75;;;;;;;6.31;95.78;101663.22;4999466;28;20038;-79
2021/11/06 00:23:04;;;;;;;31.23;14.95;;;;;;;6.42;95.88;101661.81;4978434;28;20026;-79
2021/11/06 00:25:29;;;;;;;30.10;16.20;;;;;;;6.53;95.74;101660.38;4998661;28;20378;-79
2021/11/06 00:27:55;;;;;;;28.75;16.63;;;;;;;6.62;95.27;101656.22;4998329;28;20035;-79
2021/11/06 00:30:20;;;;;;;29.85;14.68;;;;;;;6.75;94.75;101663.59;4998273;28;20058;-79
2021/11/06 00:32:46;;;;;;;27.05;15.02;;;;;;;6.79;94.33;101665.47;4994146;28;20444;-79
2021/11/06 00:35:13;;;;;;;24.77;13.80;;;;;;;6.90;94.23;101656.13;4998275;28;20414;-79
2021/11/06 00:37:40;;;;;;;26.05;15.32;;;;;;;6.98;93.58;101649.34;4973127;28;20173;-79
2021/11/06 00:40:07;;;;;;;27.15;15.93;;;;;;;7.08;93.06;101655.75;4997306;28;20485;-79
2021/11/06 00:42:32;;;;;;;29.13;14.88;;;;;;;7.09;92.56;101652.25;4996000;28;20041;-79
2021/11/06 00:44:58;;;;;;;25.95;15.48;;;;;;;7.13;92.08;101655.88;5002358;28;20038;-79
2021/11/06 00:47:23;;;;;;;23.73;13.85;;;;;;;7.20;92.26;101650.81;4984744;28;20046;-79
2021/11/06 00:49:49;;;;;;;24.95;13.85;;;;;;;7.23;91.93;101655.22;5001888;28;20038;-79
2021/11/06 00:52:14;;;;;;;25.65;14.98;;;;;;;7.27;91.38;101657.09;5002372;28;20048;-79
2021/11/06 00:54:39;;;;;;;25.80;14.23;;;;;;;7.28;91.32;101669.34;4984441;28;20220;-80
2021/11/06 00:57:05;;;;;;;23.67;12.90;;;;;;;7.29;91.04;101663.28;5000284;28;20038;-79
2021/11/06 00:59:30;;;;;;;21.48;12.65;;;;;;;7.36;90.90;101662.59;4983042;28;20038;-79
2021/11/06 01:01:56;;;;;;;22.52;12.73;;;;;;;7.35;90.49;101666.03;4983299;28;20038;-79
2021/11/06 01:04:21;;;;;;;26.20;13.10;;;;;;;7.44;90.26;101665.38;4982929;28;20038;-79
2021/11/06 01:06:47;;;;;;;23.50;13.52;;;;;;;7.50;90.63;101664.66;5000468;28;20038;-79
2021/11/06 01:09:12;;;;;;;23.55;12.88;;;;;;;7.49;89.65;101665.50;4999674;28;20050;-79
2021/11/06 01:11:38;;;;;;;20.10;12.40;;;;;;;7.54;89.97;101653.38;4999757;28;20038;-80
2021/11/06 01:14:04;;;;;;;18.40;12.20;;;;;;;7.53;89.55;101655.13;4965698;28;20031;-79
2021/11/06 01:16:29;;;;;;;23.17;13.70;;;;;;;7.56;89.91;101663.06;4981906;28;20467;-79
2021/11/06 01:18:55;;;;;;;23.92;13.77;;;;;;;7.58;89.49;101661.38;4999082;28;20035;-80
2021/11/06 01:21:20;;;;;;;20.45;11.95;;;;;;;7.58;89.55;101658.75;5000162;28;20435;-80
2021/11/06 01:23:46;;;;;;;21.23;12.00;;;;;;;7.63;89.62;101661.47;5000212;28;20053;-80
2021/11/06 01:26:11;;;;;;;20.63;11.88;;;;;;;7.65;89.31;101660.66;4981493;28;20065;-80
2021/11/06 01:28:36;;;;;;;19.77;11.48;;;;;;;7.65;89.24;101663.28;4999337;28;20042;-80
2021/11/06 01:31:02;;;;;;;20.55;11.25;;;;;;;7.60;88.51;101666.66;4964993;28;20031;-80
2021/11/06 01:33:27;;;;;;;23.20;13.43;;;;;;;7.59;89.52;101664.88;4980903;28;20416;-79
2021/11/06 01:35:53;;;;;;;19.48;11.23;;;;;;;7.62;88.95;101662.31;4981453;28;20556;-79
2021/11/06 01:38:18;;;;;;;22.15;11.65;;;;;;;7.63;88.91;101672.00;4984214;28;20038;-79
2021/11/06 01:40:44;;;;;;;20.75;11.80;;;;;;;7.68;88.73;101678.25;5001937;28;20045;-79
2021/11/06 01:43:10;;;;;;;19.05;11.75;;;;;;;7.71;88.92;101674.81;4999791;28;20038;-79
2021/11/06 01:45:35;;;;;;;20.00;11.52;;;;;;;7.66;88.56;101667.69;4997100;28;20035;-79
2021/11/06 01:48:00;;;;;;;19.33;12.15;;;;;;;7.68;89.44;101675.63;5000923;28;20034;-80
2021/11/06 01:50:27;;;;;;;20.75;11.20;;;;;;;7.76;89.14;101679.31;5001260;28;20046;-79
2021/11/06 01:52:52;;;;;;;18.83;11.63;;;;;;;7.80;89.42;101686.41;5002278;28;20157;-80
2021/11/06 01:55:18;;;;;;;24.02;12.45;;;;;;;7.81;88.50;101682.94;4984160;28;20089;-79
2021/11/06 01:57:45;;;;;;;18.70;11.63;;;;;;;7.83;88.80;101681.25;4984387;28;20101;-79
2021/11/06 02:00:20;;;;;;;21.90;12.15;;;;;;;7.84;88.61;101690.00;5001438;28;20030;-80
2021/11/06 02:02:45;;;;;;;19.95;11.48;;;;;;;7.87;88.77;101688.34;4989438;28;20030;-80
2021/11/06 02:05:12;;;;;;;18.70;11.15;;;;;;;7.89;88.30;101685.75;5002474;28;20061;-79
2021/11/06 02:07:38;;;;;;;18.23;10.60;;;;;;;7.91;88.18;101691.91;4983451;28;20034;-79
2021/11/06 02:10:05;;;;;;;21.55;12.13;;;;;;;7.92;88.25;101677.06;5000040;28;20080;-79
2021/11/06 02:12:30;;;;;;;17.58;10.60;;;;;;;7.92;87.82;101684.94;5002026;28;20039;-79
2021/11/06 02:14:55;;;;;;;18.88;10.85;;;;;;;7.83;88.02;101688.22;5001798;28;20076;-79
2021/11/06 02:17:21;;;;;;;19.52;10.65;;;;;;;7.85;88.29;101691.78;5002006;28;20034;-79
2021/11/06 02:19:46;;;;;;;20.17;11.95;;;;;;;7.82;87.91;101684.72;5001734;28;20034;-79
2021/11/06 02:22:12;;;;;;;17.98;10.23;;;;;;;7.91;88.49;101689.28;5001898;28;20038;-79
2021/11/06 02:24:37;;;;;;;19.67;11.00;;;;;;;7.91;88.23;101689.28;4998530;28;20527;-79
2021/11/06 02:27:03;;;;;;;18.55;10.57;;;;;;;7.93;88.33;101678.81;4994966;28;20515;-80
2021/11/06 02:29:28;;;;;;;18.48;11.88;;;;;;;7.91;88.43;101686.66;5001172;28;20077;-80
2021/11/06 02:31:54;;;;;;;16.30;9.50;;;;;;;7.90;88.32;101687.50;5001764;28;20038;-80
2021/11/06 02:34:19;;;;;;;17.27;9.43;;;;;;;7.91;88.49;101694.53;5001367;28;20101;-80
2021/11/06 02:36:44;;;;;;;16.55;9.77;;;;;;;7.97;88.28;101689.44;4988386;28;20038;-79
2021/11/06 02:39:10;;;;;;;17.25;10.13;;;;;;;7.98;88.01;101690.31;5007392;28;20045;-79
2021/11/06 02:41:36;;;;;;;17.05;10.38;;;;;;;7.90;88.02;101691.03;4979145;28;20552;-79
2021/11/06 02:44:10;;;;;;;18.95;10.18;;;;;;;7.97;88.46;101688.56;5001612;28;20042;-79
2021/11/06 02:46:36;;;;;;;17.77;9.25;;;;;;;7.98;87.98;101687.69;5000230;28;20050;-79
2021/11/06 02:49:03;;;;;;;19.83;8.90;;;;;;;7.89;87.36;101691.91;4982169;28;20503;-79
2021/11/06 02:51:29;;;;;;;16.20;9.43;;;;;;;7.85;88.28;101690.03;4982070;28;20046;-79
2021/11/06 02:53:54;;;;;;;17.08;9.35;;;;;;;7.85;87.89;101690.03;4999535;28;20038;-80
2021/11/06 02:56:23;;;;;;;18.98;10.10;;;;;;;7.81;87.99;101698.72;4982075;28;20042;-79
2021/11/06 02:58:49;;;;;;;17.83;8.98;;;;;;;7.78;87.96;101696.03;4999652;28;20073;-79
2021/11/06 03:01:14;;;;;;;16.52;9.10;;;;;;;7.71;87.90;101688.81;4999335;28;20046;-79
2021/11/06 03:03:39;;;;;;;19.80;8.60;;;;;;;7.66;88.30;101693.97;4982083;28;20493;-80
2021/11/06 03:06:05;;;;;;;16.50;9.23;;;;;;;7.61;88.86;101699.97;4999325;28;20046;-80
2021/11/06 03:08:30;;;;;;;15.32;9.10;;;;;;;7.52;89.11;101694.47;4999056;28;20038;-79
2021/11/06 03:10:55;;;;;;;17.90;9.85;;;;;;;7.43;89.18;101705.63;4981119;28;20041;-80
2021/11/06 03:13:21;;;;;;;16.42;9.77;;;;;;;7.36;89.45;101709.88;4980977;28;20034;-79
2021/11/06 03:15:47;;;;;;;17.38;9.20;;;;;;;7.31;90.00;101711.47;4998432;28;20038;-79
2021/11/06 03:18:12;;;;;;;18.20;9.95;;;;;;;7.28;89.69;101716.63;4981502;28;20038;-79
2021/11/06 03:20:37;;;;;;;17.27;9.50;;;;;;;7.22;90.09;101725.22;4999010;28;20080;-80
2021/11/06 03:23:02;;;;;;;16.90;9.90;;;;;;;7.21;89.77;101722.59;4998191;28;20030;-79
2021/11/06 03:25:28;;;;;;;19.17;9.90;;;;;;;7.18;90.04;101723.41;4998346;28;20030;-79
2021/11/06 03:27:55;;;;;;;17.20;8.90;;;;;;;7.17;90.21;101720.72;4998590;28;20092;-79
2021/11/06 03:30:20;;;;;;;20.45;10.05;;;;;;;7.20;90.27;101728.66;4997164;28;20056;-80
2021/11/06 03:32:46;;;;;;;18.73;9.45;;;;;;;7.15;90.40;101720.69;4996660;28;20160;-79
2021/11/06 03:35:11;;;;;;;17.02;9.52;;;;;;;7.06;90.27;101730.03;4996755;28;20042;-79
2021/11/06 03:37:37;;;;;;;12.40;7.60;;;;;;;7.02;90.91;101735.22;4977737;28;20046;-79
2021/11/06 03:40:04;;;;;;;17.35;9.43;;;;;;;6.99;90.86;101732.47;5001976;28;20030;-79
2021/11/06 03:42:30;;;;;;;13.43;8.88;;;;;;;6.99;90.32;101735.09;4987902;28;20520;-79
2021/11/06 03:44:55;;;;;;;15.88;9.23;;;;;;;6.96;90.43;101729.78;4992322;28;20038;-79
2021/11/06 03:47:21;;;;;;;16.83;8.88;;;;;;;6.89;90.63;101727.84;4975457;28;20042;-79
2021/11/06 03:49:46;;;;;;;18.27;9.50;;;;;;;6.88;91.18;101728.69;4990289;28;20078;-79
2021/11/06 03:52:13;;;;;;;18.30;10.13;;;;;;;6.86;91.01;101727.75;4989957;28;20039;-79
2021/11/06 03:54:38;;;;;;;17.17;8.82;;;;;;;6.85;91.01;101730.34;4993064;28;20116;-78
2021/11/06 03:57:04;;;;;;;18.20;9.30;;;;;;;6.80;91.08;101724.94;4986421;28;20062;-79
2021/11/06 03:59:29;;;;;;;16.80;9.57;;;;;;;6.76;91.08;101729.25;4999914;28;20057;-79
2021/11/06 04:01:54;;;;;;;17.55;9.73;;;;;;;6.78;91.46;101734.50;4999980;28;20046;-79
2021/11/06 04:04:20;;;;;;;17.15;9.07;;;;;;;6.73;90.32;101736.13;4999714;28;20042;-79
2021/11/06 04:06:45;;;;;;;18.85;9.63;;;;;;;6.66;91.19;101736.81;4999651;28;20042;-79
2021/11/06 04:09:10;;;;;;;15.95;9.98;;;;;;;6.64;91.17;101730.63;4972867;28;20405;-79
2021/11/06 04:11:36;;;;;;;15.82;9.88;;;;;;;6.62;91.15;101727.94;4999741;28;20438;-79
2021/11/06 04:14:01;;;;;;;17.88;9.15;;;;;;;6.56;91.69;101723.41;4998967;28;20503;-78
2021/11/06 04:16:27;;;;;;;18.00;10.05;;;;;;;6.60;91.73;101732.25;4999125;28;20035;-78
2021/11/06 04:18:52;;;;;;;17.60;9.55;;;;;;;6.57;91.54;101730.41;5002250;28;20109;-79
2021/11/06 04:21:18;;;;;;;17.67;9.45;;;;;;;6.53;91.78;101744.31;5002559;28;20070;-79
2021/11/06 04:23:43;;;;;;;16.85;8.05;;;;;;;6.54;91.91;101743.44;4988179;28;20069;-79
2021/11/06 04:26:09;;;;;;;14.82;8.93;;;;;;;6.52;91.88;101732.03;5002219;28;20054;-80
2021/11/06 04:28:34;;;;;;;17.40;9.38;;;;;;;6.52;91.58;101742.53;5000085;28;20042;-79
2021/11/06 04:31:00;;;;;;;18.55;8.82;;;;;;;6.50;92.12;101738.97;5004045;28;20038;-79
2021/11/06 04:33:25;;;;;;;17.92;9.73;;;;;;;6.53;91.94;101749.53;4983832;28;20129;-80
2021/11/06 04:35:50;;;;;;;15.20;9.15;;;;;;;6.59;92.18;101743.59;4988745;28;20053;-80
2021/11/06 04:38:16;;;;;;;18.55;9.77;;;;;;;6.65;91.53;101758.63;5004364;28;20046;-79
2021/11/06 04:40:41;;;;;;;13.68;8.93;;;;;;;6.77;91.68;101753.75;4987169;28;20030;-79
2021/11/06 04:43:07;;;;;;;16.73;9.00;;;;;;;6.80;90.92;101748.56;5004089;28;20042;-79
2021/11/06 04:45:32;;;;;;;15.77;9.25;;;;;;;6.92;90.44;101748.03;4987423;28;20038;-80
2021/11/06 04:47:57;;;;;;;17.20;9.40;;;;;;;6.97;90.77;101739.44;5004040;28;20485;-79
2021/11/06 04:50:23;;;;;;;19.52;10.60;;;;;;;6.96;90.19;101749.88;5004320;28;20034;-80
2021/11/06 04:52:48;;;;;;;15.73;9.05;;;;;;;7.04;89.78;101748.38;4986624;28;20073;-80
2021/11/06 04:55:15;;;;;;;18.40;9.25;;;;;;;7.08;89.39;101744.09;5004009;28;20096;-79
2021/11/06 04:57:41;;;;;;;15.45;9.10;;;;;;;7.14;89.77;101745.16;5003030;28;20074;-79
2021/11/06 05:00:10;;;;;;;18.58;9.25;;;;;;;7.17;89.18;101750.47;5001179;28;20544;-80
2021/11/06 05:02:36;;;;;;;16.35;9.70;;;;;;;7.21;88.63;101748.84;4988356;28;20037;-79
2021/11/06 05:05:02;;;;;;;15.82;9.75;;;;;;;7.22;88.60;101753.25;4987289;28;20042;-79
2021/11/06 05:07:27;;;;;;;15.35;9.00;;;;;;;7.31;89.09;101752.59;4985160;28;20116;-78
2021/11/06 05:09:53;;;;;;;14.93;8.45;;;;;;;7.38;88.45;101750.16;5000823;28;20042;-81
2021/11/06 05:12:19;;;;;;;13.45;8.63;;;;;;;7.43;88.02;101756.44;5000055;28;20044;-79
2021/11/06 05:14:47;;;;;;;18.20;9.45;;;;;;;7.46;87.83;101750.38;4999941;28;20382;-81
2021/11/06 05:17:12;;;;;;;14.90;8.35;;;;;;;7.46;87.79;101746.00;5000424;28;20065;-79
2021/11/06 05:19:37;;;;;;;16.38;8.93;;;;;;;7.51;87.44;101750.50;5000686;28;20034;-79
2021/11/06 05:22:03;;;;;;;15.20;8.93;;;;;;;7.52;87.17;101747.00;5000666;28;20038;-80
2021/11/06 05:24:28;;;;;;;15.00;8.75;;;;;;;7.53;87.04;101754.94;5000369;28;20114;-79
2021/11/06 05:26:54;;;;;;;16.25;8.68;;;;;;;7.50;87.28;101748.72;5000004;28;20042;-79
2021/11/06 05:29:20;;;;;;;17.25;8.85;;;;;;;7.49;87.12;101752.19;4976465;28;20050;-80
2021/11/06 05:31:45;;;;;;;16.88;9.20;;;;;;;7.49;87.01;101760.94;4976162;28;20040;-79
2021/11/06 05:34:11;;;;;;;14.27;9.52;;;;;;;7.48;87.35;101756.56;4995445;28;20089;-79
2021/11/06 05:36:36;;;;;;;16.05;9.18;;;;;;;7.47;87.13;101762.66;4991573;28;20053;-79
2021/11/06 05:39:02;;;;;;;13.77;8.20;;;;;;;7.54;87.39;101751.44;4992664;28;20030;-79
2021/11/06 05:41:27;;;;;;;15.75;8.13;;;;;;;7.50;87.18;101757.50;4977724;28;20507;-79
2021/11/06 05:43:53;;;;;;;15.25;9.18;;;;;;;7.55;87.28;101747.13;4994153;28;20054;-79
2021/11/06 05:46:19;;;;;;;14.38;9.07;;;;;;;7.62;87.12;101756.91;4991540;28;20035;-79
2021/11/06 05:48:44;;;;;;;14.23;9.00;;;;;;;7.69;87.01;101750.97;4975939;28;20516;-79
2021/11/06 05:51:09;;;;;;;16.67;7.90;;;;;;;7.75;86.56;101755.47;4985640;28;20045;-79
2021/11/06 05:53:35;;;;;;;14.43;8.23;;;;;;;7.80;86.47;101749.47;4987683;28;20033;-79
2021/11/06 05:56:00;;;;;;;13.48;7.60;;;;;;;7.76;86.20;101747.66;4990040;28;20030;-79
2021/11/06 05:58:25;;;;;;;14.32;8.90;;;;;;;7.67;86.37;101750.91;4977958;28;20471;-79
2021/11/06 06:00:51;;;;;;;13.82;7.60;;;;;;;7.72;86.49;101753.66;4996257;28;20545;-79
2021/11/06 06:03:17;;;;;;;14.35;8.05;;;;;;;7.75;85.89;101766.88;4995313;28;20105;-80
2021/11/06 06:05:43;;;;;;;13.27;7.65;;;;;;;7.79;86.13;101773.13;4978400;28;20092;-79
2021/11/06 06:08:09;;;;;;;15.45;8.00;;;;;;;7.75;85.29;101772.13;4978768;28;20038;-79
2021/11/06 06:10:34;;;;;;;12.52;8.85;;;;;;;7.73;86.35;101768.59;4994681;28;20069;-77
2021/11/06 06:13:00;;;;;;;13.93;8.48;;;;;;;7.73;86.25;101776.47;4994422;28;20026;-78
2021/11/06 06:15:25;;;;;;;14.68;8.30;;;;;;;7.75;86.23;101771.25;4994611;28;20515;-77
2021/11/06 06:17:51;;;;;;;12.98;7.93;;;;;;;7.81;86.31;101772.31;4994534;28;20046;-77
2021/11/06 06:20:18;;;;;;;11.52;7.32;;;;;;;7.87;85.97;101768.94;4994588;28;20034;-77
2021/11/06 06:22:45;;;;;;;11.23;7.10;;;;;;;7.92;85.65;101767.31;4994394;28;20821;-78
2021/11/06 06:25:12;;;;;;;10.93;7.28;;;;;;;7.89;84.76;101776.00;4994283;28;20038;-77
2021/11/06 06:27:39;;;;;;;12.50;7.43;;;;;;;7.96;85.24;101768.25;4976924;28;20061;-77
2021/11/06 06:30:08;;;;;;;14.45;7.28;;;;;;;7.95;84.64;101772.63;4994271;28;20478;-77
2021/11/06 06:32:33;;;;;;;13.45;8.38;;;;;;;8.00;84.78;101767.50;4970484;28;20124;-77
2021/11/06 06:34:58;;;;;;;11.73;8.15;;;;;;;7.97;85.16;101770.06;4992747;28;20294;-77
2021/11/06 06:37:24;;;;;;;13.20;8.90;;;;;;;8.02;84.99;101769.31;4994114;28;20056;-77
2021/11/06 06:39:50;;;;;;;15.48;8.85;;;;;;;8.08;84.78;101768.56;4993478;28;20034;-77
2021/11/06 06:42:15;;;;;;;15.50;8.35;;;;;;;8.08;84.17;101779.09;4976828;28;20106;-77
2021/11/06 06:44:41;;;;;;;12.73;6.20;;;;;;;8.04;83.51;101779.84;4992313;28;20113;-78
2021/11/06 06:47:06;;;;;;;14.30;9.50;;;;;;;7.99;84.15;101781.47;4993203;28;20046;-78
2021/11/06 06:49:32;;;;;;;17.70;10.38;;;;;;;8.01;84.14;101779.78;4983380;28;20034;-78
2021/11/06 06:51:57;;;;;;;13.82;7.30;;;;;;;8.06;83.51;101783.41;4994339;28;20109;-77
2021/11/06 06:54:23;;;;;;;12.82;7.68;;;;;;;8.15;84.02;101777.47;4978984;28;20060;-77
2021/11/06 06:56:49;;;;;;;14.07;9.00;;;;;;;8.16;84.27;101781.91;4993197;28;20117;-76
2021/11/06 06:59:14;;;;;;;13.60;8.15;;;;;;;8.22;83.98;101789.91;4993494;28;20054;-78
2021/11/06 07:01:40;;;;;;;14.38;9.88;;;;;;;8.24;84.30;101789.09;4993894;28;20079;-77
2021/11/06 07:04:06;;;;;;;18.00;10.98;;;;;;;8.25;84.12;101788.28;4976556;28;20432;-77
2021/11/06 07:09:13;;;;;;;13.57;8.40;;;;;;;8.30;82.11;101805.03;4880552;26;20047;-76
2021/11/06 07:11:38;;;;;;;13.02;8.13;;;;;;;8.30;82.45;101802.38;4991775;28;20042;-77
2021/11/06 07:14:04;;;;;;;13.75;8.55;;;;;;;8.35;83.10;101806.00;4992437;28;20022;-76
2021/11/06 07:16:29;;;;;;;12.32;7.82;;;;;;;8.42;82.58;101803.59;4992286;28;20065;-76
2021/11/06 07:18:54;;;;;;;13.60;8.63;;;;;;;8.47;81.91;101810.72;4992738;28;20042;-76
2021/11/06 07:21:19;;;;;;;13.93;8.90;;;;;;;8.45;82.45;101814.16;4993054;28;20046;-77
2021/11/06 07:23:45;;;;;;;13.95;9.13;;;;;;;8.47;81.74;101810.72;4974685;28;20042;-77
2021/11/06 07:26:10;;;;;;;15.27;9.65;;;;;;;8.61;82.24;101815.41;4990492;28;20074;-76
2021/11/06 07:28:36;;;;;;;13.32;8.70;;;;;;;8.72;81.46;101808.63;4973643;28;20100;-76
2021/11/06 07:31:01;;;;;;;15.05;10.35;;;;;;;8.68;80.92;101820.84;4971607;28;20026;-76
2021/11/06 07:33:26;;;;;;;15.98;10.07;;;;;;;8.75;80.28;101822.75;4972334;28;20084;-77
2021/11/06 07:35:52;;;;;;;15.25;9.35;;;;;;;8.67;81.02;101818.16;4992806;28;20033;-77
2021/11/06 07:38:17;;;;;;;13.82;9.95;;;;;;;8.75;81.29;101813.94;4993128;28;20046;-77
2021/11/06 07:40:44;;;;;;;15.00;9.80;;;;;;;8.86;80.68;101811.59;4992984;28;20463;-77
2021/11/06 07:43:10;;;;;;;16.70;11.50;;;;;;;8.92;80.13;101814.34;4992863;28;20045;-77
2021/11/06 07:45:35;;;;;;;18.23;12.30;;;;;;;9.02;79.94;101812.78;4992426;28;20031;-79
2021/11/06 07:48:01;;;;;;;17.60;12.75;;;;;;;8.97;79.75;101816.19;4968541;28;20512;-79
2021/11/06 07:50:26;;;;;;;15.18;10.45;;;;;;;9.06;78.38;101825.16;4976113;28;20041;-79
2021/11/06 07:52:52;;;;;;;17.77;10.10;;;;;;;8.95;78.50;101830.19;4992959;28;20129;-79
2021/11/06 07:55:17;;;;;;;13.38;8.70;;;;;;;8.99;79.24;101824.16;4974177;28;20073;-79
2021/11/06 07:57:43;;;;;;;14.70;9.57;;;;;;;9.07;79.41;101817.28;4991902;28;20049;-80
2021/11/06 08:00:11;;;;;;;15.68;9.68;;;;;;;9.06;78.30;101812.84;4991817;28;20058;-78
2021/11/06 08:02:38;;;;;;;15.77;9.23;;;;;;;9.02;78.05;101823.31;4992578;28;20504;-77
2021/11/06 08:05:04;;;;;;;13.18;9.60;;;;;;;8.97;79.59;101816.19;4975844;28;20121;-78
2021/11/06 08:07:29;;;;;;;14.63;8.32;;;;;;;9.02;78.22;101824.19;4993732;28;20042;-79
2021/11/06 08:09:55;;;;;;;14.48;8.93;;;;;;;9.10;78.53;101825.25;4993440;28;20045;-79
2021/11/06 08:12:20;;;;;;;11.95;8.25;;;;;;;9.27;78.11;101825.56;4993807;28;20056;-79
2021/11/06 08:14:46;;;;;;;12.73;8.10;;;;;;;9.28;77.28;101821.22;4993538;28;20121;-79
2021/11/06 08:17:11;;;;;;;13.73;8.57;;;;;;;9.34;77.73;101816.94;4993743;28;20038;-79
2021/11/06 08:19:37;;;;;;;15.75;9.63;;;;;;;9.47;77.69;101825.09;4976380;28;20034;-79
2021/11/06 08:22:02;;;;;;;13.13;9.10;;;;;;;9.50;76.99;101823.38;4976504;28;20049;-79
2021/11/06 08:24:27;;;;;;;13.63;9.07;;;;;;;9.58;76.10;101811.25;4976734;28;20031;-81
2021/11/06 08:26:53;;;;;;;15.30;9.50;;;;;;;9.65;76.49;101814.88;4977051;28;20385;-79
2021/11/06 08:29:19;;;;;;;14.90;9.50;;;;;;;9.82;75.92;101817.81;4974817;28;20516;-80
2021/11/06 08:31:44;;;;;;;14.63;9.50;;;;;;;9.80;75.66;101817.81;4998462;28;20069;-80
2021/11/06 08:34:10;;;;;;;12.55;8.93;;;;;;;9.89;75.08;101814.44;4980814;28;20041;-82
2021/11/06 08:36:36;;;;;;;14.32;9.27;;;;;;;9.87;74.97;101805.59;4996696;28;20035;-82
2021/11/06 08:39:03;;;;;;;12.00;8.20;;;;;;;9.95;74.88;101809.25;4978596;28;20034;-82
2021/11/06 08:41:29;;;;;;;14.50;9.02;;;;;;;9.98;74.66;101804.06;4994270;28;20026;-82
2021/11/06 08:43:54;;;;;;;13.10;9.02;;;;;;;10.00;73.85;101804.94;4979718;28;20045;-82
2021/11/06 08:46:20;;;;;;;12.18;8.13;;;;;;;9.98;74.32;101797.88;4977077;28;20034;-83
2021/11/06 08:48:45;;;;;;;12.48;8.52;;;;;;;9.98;74.94;101806.69;4994090;28;20481;-82
2021/11/06 08:51:11;;;;;;;11.15;8.20;;;;;;;10.09;75.34;101804.22;4994053;28;20038;-82
2021/11/06 08:53:36;;;;;;;11.68;8.38;;;;;;;10.10;74.21;101801.59;4976712;28;20073;-83
2021/11/06 08:56:02;;;;;;;14.18;9.50;;;;;;;10.09;75.19;101794.56;4994302;28;20133;-82
2021/11/06 08:58:27;;;;;;;15.60;8.70;;;;;;;10.04;74.94;101800.63;4976483;28;20038;-82
2021/11/06 09:00:53;;;;;;;12.50;8.55;;;;;;;9.98;74.27;101796.13;4994458;28;20408;-83
2021/11/06 09:03:22;;;;;;;13.10;8.27;;;;;;;9.95;74.09;101800.44;4994591;28;20452;-83
2021/11/06 09:05:51;;;;;;;12.07;7.60;;;;;;;9.98;74.44;101800.50;4997713;28;20038;-82
2021/11/06 09:08:29;;;;;;;11.18;8.10;;;;;;;10.00;75.18;101799.66;4979569;28;20117;-82
2021/11/06 09:10:59;;;;;;;12.20;7.63;;;;;;;10.05;74.80;101805.91;4997774;28;20040;-82
2021/11/06 09:13:25;;;;;;;10.45;7.93;;;;;;;9.97;74.80;101804.91;4996461;28;20054;-82
2021/11/06 09:15:51;;;;;;;13.63;7.18;;;;;;;9.97;74.93;101799.63;4979101;28;20038;-83
2021/11/06 09:18:16;;;;;;;11.38;7.88;;;;;;;10.02;74.77;101799.69;4995579;28;20248;-82
2021/11/06 09:20:42;;;;;;;11.15;6.68;;;;;;;9.91;74.22;101804.81;4996013;28;20034;-83
2021/11/06 09:23:07;;;;;;;11.52;7.25;;;;;;;9.86;74.96;101806.47;4982221;28;20049;-83
2021/11/06 09:25:33;;;;;;;10.38;7.50;;;;;;;9.82;75.34;101809.91;4996319;28;20037;-83
2021/11/06 09:27:58;;;;;;;10.68;7.03;;;;;;;9.80;75.47;101812.53;4994990;28;20560;-83
2021/11/06 09:30:23;;;;;;;10.73;6.57;;;;;;;9.82;75.98;101817.81;4996497;28;20057;-82
2021/11/06 09:32:49;;;;;;;13.73;7.32;;;;;;;9.84;75.98;101816.09;4979237;28;20452;-82
2021/11/06 09:35:15;;;;;;;10.50;7.05;;;;;;;9.84;75.46;101811.72;4964064;28;20123;-82
2021/11/06 09:37:40;;;;;;;11.32;6.88;;;;;;;9.84;74.76;101810.81;4980055;28;20953;-82
2021/11/06 09:40:08;;;;;;;11.77;6.85;;;;;;;9.82;74.31;101813.44;4995582;28;20040;-82
2021/11/06 09:42:39;;;;;;;11.65;7.40;;;;;;;9.96;74.15;101816.31;4996361;28;20026;-83
2021/11/06 09:45:06;;;;;;;13.20;7.55;;;;;;;9.97;73.44;101810.16;4977070;28;20052;-83
2021/11/06 09:47:32;;;;;;;10.50;6.75;;;;;;;10.05;73.03;101821.72;4978867;28;20053;-83
2021/11/06 09:49:57;;;;;;;13.15;7.38;;;;;;;10.16;72.93;101818.38;4981952;28;20049;-83
2021/11/06 09:52:23;;;;;;;11.13;6.97;;;;;;;10.23;71.77;101817.63;4996600;28;20046;-84
2021/11/06 09:54:48;;;;;;;13.20;7.57;;;;;;;10.43;71.94;101821.50;4995242;28;20141;-83
2021/11/06 09:57:13;;;;;;;12.00;7.97;;;;;;;10.46;70.96;101820.66;4980781;28;20042;-83
2021/11/06 09:59:39;;;;;;;12.93;7.47;;;;;;;10.60;71.82;101824.38;4982694;28;20181;-83
2021/11/06 10:02:05;;;;;;;10.55;7.75;;;;;;;10.56;70.91;101811.09;4996210;28;20026;-83
2021/11/06 10:04:30;;;;;;;10.45;6.97;;;;;;;10.39;70.97;101813.50;4978647;28;20098;-83
2021/11/06 10:07:19;;;;;;;11.35;6.68;;;;;;;10.38;71.55;101815.25;4996592;28;20038;-83
2021/11/06 10:09:58;;;;;;;11.43;7.32;;;;;;;10.35;72.03;101809.94;4978478;28;20496;-83
2021/11/06 10:12:24;;;;;;;9.73;7.25;;;;;;;10.45;72.20;101808.31;4995442;28;20046;-84
2021/11/06 10:15:06;;;;;;;9.80;7.03;;;;;;;10.44;72.09;101807.44;4995746;28;20042;-84
2021/11/06 10:17:34;;;;;;;12.18;6.90;;;;;;;10.48;72.13;101801.34;4999836;28;20060;-84
2021/11/06 10:20:17;;;;;;;11.75;6.30;;;;;;;10.49;71.90;101800.47;5001391;28;20389;-84
2021/11/06 10:22:44;;;;;;;10.57;6.88;;;;;;;10.53;71.84;101801.38;4997337;28;20042;-83
2021/11/06 10:25:09;;;;;;;10.07;6.38;;;;;;;10.51;70.68;101801.38;4996925;28;20093;-83
2021/11/06 10:27:34;;;;;;;10.52;6.05;;;;;;;10.61;70.74;101801.50;4995596;28;20042;-84
2021/11/06 10:30:14;;;;;;;11.45;6.93;;;;;;;10.61;70.52;101802.41;4995417;28;20593;-84
2021/11/06 10:32:56;;;;;;;9.65;6.00;;;;;;;10.80;70.22;101800.00;4993599;28;20150;-83
2021/11/06 10:35:26;;;;;;;8.95;6.00;;;;;;;10.99;69.66;101787.91;4972885;28;20052;-84
2021/11/06 10:38:11;;;;;;;9.43;5.90;;;;;;;11.07;68.45;101788.91;4996027;28;20434;-83
2021/11/06 10:40:52;;;;;;;10.13;6.43;;;;;;;11.05;68.25;101786.22;4976881;28;20107;-83
2021/11/06 10:43:20;;;;;;;9.60;6.20;;;;;;;10.99;66.98;101795.84;4994534;28;20046;-83
2021/11/06 10:45:48;;;;;;;11.30;6.22;;;;;;;10.94;66.96;101793.13;4974094;28;20125;-84
2021/11/06 10:48:22;;;;;;;9.23;6.20;;;;;;;11.02;67.36;101790.59;4977259;28;20030;-84
2021/11/06 10:51:07;;;;;;;8.77;6.10;;;;;;;11.08;67.49;101795.94;4991143;28;20045;-83
2021/11/06 10:53:42;;;;;;;10.77;6.25;;;;;;;11.10;66.97;101794.22;4978601;28;20038;-85
2021/11/06 10:56:13;;;;;;;12.73;6.70;;;;;;;11.17;67.59;101798.72;4974659;28;20120;-84
2021/11/06 10:58:39;;;;;;;9.50;5.80;;;;;;;11.21;68.02;101795.22;4974436;28;20062;-84
2021/11/06 11:01:07;;;;;;;7.55;5.72;;;;;;;11.30;67.19;101792.69;4991130;28;20034;-84
2021/11/06 11:03:41;;;;;;;9.63;6.13;;;;;;;11.27;66.89;101778.56;4994278;28;20065;-84
2021/11/06 11:06:09;;;;;;;9.70;5.70;;;;;;;11.30;66.88;101781.25;4992600;28;20408;-84
2021/11/06 11:08:52;;;;;;;14.63;6.20;;;;;;;11.23;65.76;101779.38;4977890;28;20097;-83
2021/11/06 11:11:19;;;;;;;9.32;5.78;;;;;;;11.35;66.45;101775.13;4994514;28;20505;-85
2021/11/06 11:13:56;;;;;;;8.57;5.82;;;;;;;11.42;65.49;101757.56;4995121;28;20050;-84
2021/11/06 11:16:23;;;;;;;8.65;5.60;;;;;;;11.44;65.94;101768.16;4994710;28;20038;-84
2021/11/06 11:18:50;;;;;;;10.98;5.10;;;;;;;11.40;65.01;101768.13;4974921;28;20037;-84
2021/11/06 11:21:17;;;;;;;7.03;5.30;;;;;;;11.46;65.14;101767.31;4993265;28;20128;-85